1 Hotel West Hollywood East Helipad

US-3769 · California, United States

METAR history US-3769 · 1 Hotel West Hollywood East Helipad

Below you see METARs of the last few days. Select a year to browse through older METARs, from the year 2007 onwards.

November 27, 2022

Time Code Weather Temp. Visibility Ceiling Wind METAR/SPECI
03:47
V
10 °C 10 mi - Var 000° 0 kt METAR KCQT 271147Z AUTO 00000KT 10SM CLR 10/07 A3006 RMK AO2 SLP178 T01000067 10139 20100 56001
02:47
V
11 °C 10 mi - Var 000° 0 kt METAR KCQT 271047Z AUTO 00000KT 10SM CLR 11/08 A3006 RMK AO2 SLP178 T01060078
01:47
V
11 °C 8 mi - Var 000° 0 kt SPECI KCQT 270947Z AUTO 00000KT 8SM FEW006 11/09 A3006 RMK AO2 SLP176 T01110089
00:47
V
12 °C 8 mi - Var 000° 0 kt SPECI KCQT 270847Z AUTO 00000KT 8SM FEW006 12/10 A3006 RMK AO2 SLP178 T01220100 58001
00:40
V
12 °C 8 mi - Var 000° 0 kt METAR KCQT 270840Z AUTO 00000KT 8SM SCT006 12/11 A3006 RMK AO2 T01220106
00:16
I
13 °C 7 mi 700 ft Var 000° 0 kt METAR KCQT 270816Z AUTO 00000KT 7SM BKN007 13/11 A3007
00:07
V
12 °C 7 mi - Var 000° 0 kt METAR KCQT 270807Z AUTO 00000KT 7SM FEW006 12/11 A3007

November 26, 2022

Time Code Weather Temp. Visibility Ceiling Wind METAR/SPECI
23:47
V
13 °C 8 mi - Var 000° 0 kt METAR KCQT 270747Z AUTO 00000KT 8SM CLR 13/11 A3007 RMK AO2 SLP180 T01280106 402220083
22:47
V
13 °C 9 mi - Var 000° 0 kt METAR KCQT 270647Z AUTO 00000KT 9SM CLR 13/11 A3007 RMK AO2 SLP180 T01280106
21:47
V
13 °C 9 mi - Var 000° 0 kt METAR KCQT 270547Z AUTO 00000KT 9SM CLR 13/11 A3006 RMK AO2 SLP179 T01330106 10189 20133 51009
20:47
V
14 °C 10 mi - Var 000° 0 kt METAR KCQT 270447Z AUTO 00000KT 10SM CLR 14/11 A3006 RMK AO2 SLP178 T01390106
19:47
V
14 °C 10 mi - Var 000° 0 kt METAR KCQT 270347Z AUTO 00000KT 10SM CLR 14/11 A3005 RMK AO2 SLP174 T01440111
18:47
V
15 °C 10 mi - Var 000° 0 kt METAR KCQT 270247Z AUTO 00000KT 10SM CLR 15/11 A3004 RMK AO2 SLP170 T01500111 52005
17:47
V
16 °C 10 mi - Var 000° 0 kt METAR KCQT 270147Z AUTO 00000KT 10SM CLR 16/12 A3003 RMK AO2 SLP169 T01610117
16:47
V
18 °C 10 mi - Var 000° 0 kt METAR KCQT 270047Z AUTO 00000KT 10SM CLR 18/11 A3002 RMK AO2 SLP166 T01780111
15:47
V
19 °C 10 mi - Var 000° 0 kt METAR KCQT 262347Z AUTO 00000KT 10SM CLR 19/12 A3002 RMK AO2 SLP165 T01890117 10222 20183 56012
14:47
V
21 °C 10 mi - Var 000° 0 kt METAR KCQT 262247Z AUTO 00000KT 10SM CLR 21/11 A3003 RMK AO2 SLP167 T02110111
13:47
V
22 °C 10 mi - Var 000° 0 kt METAR KCQT 262147Z AUTO 00000KT 10SM CLR 22/03 A3003 RMK AO2 SLP168 T02170033
12:47
V
21 °C 10 mi - 130° 130° 3 kt SPECI KCQT 262047Z AUTO 13003KT 10SM CLR 21/M02 A3006 RMK AO2 SLP176 T02111022 58029
11:47
V
21 °C 10 mi - Var 000° 0 kt METAR KCQT 261947Z AUTO 00000KT 10SM CLR 21/M04 A3009 RMK AO2 SLP188 T02061039
10:47
V
19 °C 10 mi - Var Var 3 kt METAR KCQT 261847Z AUTO VRB03KT 10SM CLR 19/M02 A3013 RMK AO2 SLP200 T01941022
09:47
V
18 °C 10 mi - Var 000° 0 kt METAR KCQT 261747Z AUTO 00000KT 10SM CLR 18/M02 A3014 RMK AO2 SLP206 T01831017 10189 20083 58003
08:47
V
16 °C 10 mi - Var 000° 0 kt METAR KCQT 261647Z AUTO 00000KT 10SM CLR 16/M01 A3016 RMK AO2 SLP212 T01611011
07:47
V
12 °C 10 mi - 030° 030° 3 kt METAR KCQT 261547Z AUTO 03003KT 10SM CLR 12/M02 A3015 RMK AO2 SLP210 T01171022
06:47
V
9 °C 10 mi - Var 000° 0 kt METAR KCQT 261447Z AUTO 00000KT 10SM CLR 09/M01 A3015 RMK AO2 SLP209 T00891011 53008
05:47
V
8 °C 10 mi - Var 000° 0 kt METAR KCQT 261347Z AUTO 00000KT 10SM CLR 08/00 A3014 RMK AO2 SLP206 T00830000
04:47
V
9 °C 10 mi - Var 000° 0 kt METAR KCQT 261247Z AUTO 00000KT 10SM CLR 09/M01 A3013 RMK AO2 SLP203 T00891006
03:47
V
12 °C 10 mi - Var 000° 0 kt METAR KCQT 261147Z AUTO 00000KT 10SM CLR 12/M03 A3013 RMK AO2 SLP200 T01171033 10128 20100 58007
02:47
V
10 °C 10 mi - Var 000° 0 kt METAR KCQT 261047Z AUTO 00000KT 10SM CLR 10/M01 A3014 RMK AO2 SLP205 T01001006
01:47
V
10 °C 10 mi - Var 000° 0 kt METAR KCQT 260947Z AUTO 00000KT 10SM CLR 10/01 A3016 RMK AO2 SLP210 T01000006
00:47
V
12 °C 10 mi - Var 000° 0 kt METAR KCQT 260847Z AUTO 00000KT 10SM CLR 12/M01 A3015 RMK AO2 SLP208 T01171011 58017

November 25, 2022

Time Code Weather Temp. Visibility Ceiling Wind METAR/SPECI
23:47
V
12 °C 10 mi - 030° 030° 3 kt METAR KCQT 260747Z AUTO 03003KT 10SM CLR 12/03 A3018 RMK AO2 SLP217 T01170028 402390089
22:47
V
12 °C 10 mi - Var 000° 0 kt METAR KCQT 260647Z AUTO 00000KT 10SM CLR 12/05 A3019 RMK AO2 SLP223 T01220050
21:47
V
13 °C 10 mi - Var 000° 0 kt METAR KCQT 260547Z AUTO 00000KT 10SM CLR 13/05 A3020 RMK AO2 SLP224 T01280050 10217 20128 50003
20:47
V
14 °C 10 mi - Var 000° 0 kt METAR KCQT 260447Z AUTO 00000KT 10SM CLR 14/05 A3020 RMK AO2 SLP226 T01390050
19:47
V
14 °C 10 mi - Var 000° 0 kt METAR KCQT 260347Z AUTO 00000KT 10SM CLR 14/03 A3020 RMK AO2 SLP226 T01440028
18:47
V
16 °C 10 mi - Var 000° 0 kt METAR KCQT 260247Z AUTO 00000KT 10SM CLR 16/M03 A3019 RMK AO2 SLP223 T01611028 53003
17:47
V
18 °C 10 mi - Var 000° 0 kt METAR KCQT 260147Z AUTO 00000KT 10SM CLR 18/M03 A3019 RMK AO2 SLP221 T01781033
16:47
V
19 °C 10 mi - 260° 260° 3 kt METAR KCQT 260047Z AUTO 26003KT 10SM CLR 19/M03 A3018 RMK AO2 SLP220 T01941028
15:47
V
22 °C 10 mi - 270° 270° 5 kt METAR KCQT 252347Z AUTO 27005KT 10SM CLR 22/M04 A3018 RMK AO2 SLP220 T02171039 10239 20206 56006
14:47
V
23 °C 10 mi - 260° 260° 5 kt METAR KCQT 252247Z AUTO 26005KT 10SM CLR 23/M04 A3019 RMK AO2 SLP220 T02281039
13:47
V
23 °C 10 mi - 260° 260° 7 kt METAR KCQT 252147Z AUTO 26007KT 10SM CLR 23/M06 A3019 RMK AO2 SLP221 T02331061
12:47
V
24 °C 10 mi - Var 000° 0 kt METAR KCQT 252047Z AUTO 00000KT 10SM CLR 24/M08 A3020 RMK AO2 SLP225 T02391078 58027
11:47
V
23 °C 10 mi - Var Var 3 kt METAR KCQT 251947Z AUTO VRB03KT 10SM CLR 23/M07 A3023 RMK AO2 SLP234 T02331067
10:47
V
22 °C 10 mi - Var 000° 0 kt METAR KCQT 251847Z AUTO 00000KT 10SM CLR 22/M07 A3026 RMK AO2 SLP246 T02171072
09:47
V
21 °C 10 mi - Var 000° 0 kt SPECI KCQT 251747Z AUTO 00000KT 10SM CLR 21/M06 A3028 RMK AO2 SLP253 T02061061 10206 20089 58000
08:47
V
18 °C 10 mi - Var Var 4 kt METAR KCQT 251647Z AUTO VRB04KT 10SM CLR 18/M07 A3028 RMK AO2 SLP254 T01781067
07:47
V
14 °C 10 mi - Var 000° 0 kt METAR KCQT 251547Z AUTO 00000KT 10SM CLR 14/M06 A3029 RMK AO2 SLP258 T01391061
06:47
V
12 °C 10 mi - Var 000° 0 kt METAR KCQT 251447Z AUTO 00000KT 10SM CLR 12/M06 A3028 RMK AO2 SLP254 T01171061 53004
05:47
V
10 °C 10 mi - Var 000° 0 kt METAR KCQT 251347Z AUTO 00000KT 10SM CLR 10/M04 A3028 RMK AO2 SLP252 T01001039
04:47
V
11 °C 10 mi - Var 000° 0 kt METAR KCQT 251247Z AUTO 00000KT 10SM CLR 11/M03 A3026 RMK AO2 SLP247 T01061033
03:47
V
9 °C 10 mi - Var 000° 0 kt METAR KCQT 251147Z AUTO 00000KT 10SM CLR 09/01 A3027 RMK AO2 SLP249 T00890006 10150 20089 53004
02:47
V
10 °C 10 mi - Var 000° 0 kt SPECI KCQT 251047Z AUTO 00000KT 10SM CLR 10/00 A3026 RMK AO2 SLP246 T01000000
01:47
V
11 °C 10 mi - Var 000° 0 kt METAR KCQT 250947Z AUTO 00000KT 10SM CLR 11/M01 A3026 RMK AO2 SLP244 T01061011

We and third parties follow your internet behavior on our website with cookies. If you continue, we assume you agree with our cookie policy.